Time;durP1;ratioP1;P1;durP2;ratioP2;P2;SDS_P1;SDS_P2;PMS_P1;PMS_P2;Temp;Humidity;BMP_temperature;BMP_pressure;BME280_temperature;BME280_humidity;BME280_pressure;Samples;Min_cycle;Max_cycle;Signal;HPM_P1;HPM_P2
2023/08/27 07:15:23;;;;;;;;;;;;;;;17.70;94.51;99265.06;1088450;54;19939;-86
2023/08/27 08:06:50;;;;;;;;;;;;;;;18.22;87.71;99287.66;1087449;54;19954;-83
2023/08/27 08:07:52;;;;;;;;;;;;;;;18.26;86.61;99296.16;1087425;47;19943;-83
2023/08/27 08:08:55;;;;;;;;;;;;;;;18.29;86.28;99294.91;1087580;54;19945;-82
2023/08/27 08:09:56;;;;;;;;;;;;;;;18.30;86.17;99293.84;1087489;54;19943;-82
2023/08/27 08:10:57;;;;;;;;;;;;;;;18.37;86.05;99300.06;1087493;54;20021;-81
2023/08/27 08:12:00;;;;;;;;;;;;;;;18.39;85.18;99301.50;1087261;47;19950;-82
2023/08/27 08:13:01;;;;;;;;;;;;;;;18.40;85.49;99299.66;1087259;54;19943;-81
2023/08/27 08:14:15;;;;;;;;;;;;;;;;;;;;;
2023/08/27 08:15:35;;;;;;;;;;;;;;;18.43;85.38;99312.72;1087997;47;19939;-82
2023/08/27 08:16:43;;;;;;;;;;;;;;;18.46;85.72;99316.91;1087767;47;19942;-83
2023/08/27 08:17:45;;;;;;;;;;;;;;;18.48;86.19;99314.78;1087769;47;19949;-82
2023/08/27 09:28:09;;;;;;;;;;;;;;;19.74;78.20;99296.03;1087378;39;20903;-82
2023/08/27 09:29:09;;;;;;;;;;;;;;;19.79;78.21;99298.94;1086688;47;19946;-80
2023/08/27 09:30:13;;;;;;;;;;;;;;;19.74;77.69;99301.47;1086574;47;19939;-80
2023/08/27 09:31:35;;;;;;;;;;;;;;;19.57;77.17;99311.22;1086770;54;20919;-80
2023/08/27 09:32:38;;;;;;;;;;;;;;;19.41;77.40;99305.31;1086582;47;19982;-79
2023/08/27 09:33:40;;;;;;;;;;;;;;;19.55;78.38;99305.22;1086431;54;19949;-79
2023/08/27 09:34:43;;;;;;;;;;;;;;;19.62;78.15;99289.72;1086417;54;19957;-79
2023/08/27 09:35:44;;;;;;;;;;;;;;;19.66;77.69;99288.19;1086134;54;19962;-81
2023/08/27 09:36:49;;;;;;;;;;;;;;;19.63;77.45;99283.25;1085261;54;19950;-80
2023/08/27 09:37:49;;;;;;;;;;;;;;;19.67;78.15;99268.16;1086600;47;19954;-80
2023/08/27 09:38:56;;;;;;;;;;;;;;;19.61;77.61;99269.88;1086850;54;20035;-78
2023/08/27 09:39:57;;;;;;;;;;;;;;;19.62;77.93;99268.03;1086804;54;19950;-80
2023/08/27 09:41:11;;;;;;;;;;;;;;;19.66;77.08;99255.66;1086612;54;19967;-81
2023/08/27 09:42:12;;;;;;;;;;;;;;;19.79;76.99;99254.69;1085800;51;19950;-81
2023/08/27 09:43:31;;;;;;;;;;;;;;;19.96;76.51;99254.97;1086315;54;19943;-83
2023/08/27 09:44:35;;;;;;;;;;;;;;;20.21;75.72;99256.78;1086033;54;19951;-82
2023/08/27 09:45:40;;;;;;;;;;;;;;;20.39;74.32;99250.50;1086413;47;19951;-82
2023/08/27 09:46:42;;;;;;;;;;;;;;;20.50;73.41;99248.91;1084780;54;19950;-82
2023/08/27 09:47:46;;;;;;;;;;;;;;;20.71;72.99;99253.81;1083807;54;19950;-83
2023/08/27 09:48:56;;;;;;;;;;;;;;;20.88;72.06;99251.31;1084905;54;19950;-82
2023/08/27 09:50:00;;;;;;;;;;;;;;;21.04;71.84;99248.97;1083553;54;20017;-82
2023/08/27 09:51:05;;;;;;;;;;;;;;;21.20;71.63;99250.19;1083984;47;19946;-80
2023/08/27 09:52:09;;;;;;;;;;;;;;;21.23;71.26;99240.72;1082982;54;19953;-80
2023/08/27 09:53:13;;;;;;;;;;;;;;;21.52;70.10;99239.00;1082903;54;20662;-82
2023/08/27 09:54:17;;;;;;;;;;;;;;;21.60;68.47;99246.81;1083006;54;19947;-82
2023/08/27 09:55:18;;;;;;;;;;;;;;;21.56;68.51;99244.78;1082063;47;19974;-83
2023/08/27 09:56:21;;;;;;;;;;;;;;;;;;1082483;54;20576;-82
2023/08/27 09:57:22;;;;;;;;;;;;;;;21.58;68.36;99234.50;1083656;51;20012;-81
2023/08/27 09:58:27;;;;;;;;;;;;;;;21.37;67.25;99244.91;1083573;54;19990;-80
2023/08/27 09:59:30;;;;;;;;;;;;;;;21.35;66.95;99244.31;1082621;54;19948;-81
2023/08/27 10:00:36;;;;;;;;;;;;;;;21.54;68.04;99242.28;1082490;54;19950;-81
2023/08/27 10:01:37;;;;;;;;;;;;;;;21.66;68.33;99251.31;1082430;47;19954;-80
2023/08/27 10:02:40;;;;;;;;;;;;;;;21.70;68.54;99256.28;1083066;54;19950;-81
2023/08/27 10:03:41;;;;;;;;;;;;;;;21.71;68.39;99257.94;1084113;54;19946;-83
2023/08/27 10:04:50;;;;;;;;;;;;;;;21.73;67.80;99253.91;1084246;54;19951;-81
2023/08/27 10:05:51;;;;;;;;;;;;;;;21.63;67.31;99257.22;1084266;47;19977;-82
2023/08/27 10:06:54;;;;;;;;;;;;;;;21.59;67.69;99258.75;1084289;54;20561;-81
2023/08/27 10:07:56;;;;;;;;;;;;;;;21.64;68.32;99258.06;1083641;47;19957;-81
2023/08/27 10:08:59;;;;;;;;;;;;;;;21.68;68.21;99252.97;1083319;54;19951;-81
2023/08/27 10:10:01;;;;;;;;;;;;;;;21.70;68.28;99257.09;1083634;54;19947;-81
2023/08/27 10:11:08;;;;;;;;;;;;;;;21.81;68.00;99258.16;1083702;54;19957;-81
2023/08/27 10:12:11;;;;;;;;;;;;;;;21.81;67.62;99256.25;1083418;54;20536;-80
2023/08/27 10:13:16;;;;;;;;;;;;;;;21.86;67.82;99250.09;1083482;54;19973;-81
2023/08/27 10:14:17;;;;;;;;;;;;;;;21.75;66.02;99253.66;1083383;54;19969;-81
2023/08/27 10:15:21;;;;;;;;;;;;;;;21.65;65.68;99244.22;1082645;54;19947;-80
2023/08/27 10:16:24;;;;;;;;;;;;;;;21.56;66.89;99242.06;1082897;39;20751;-80
2023/08/27 10:17:28;;;;;;;;;;;;;;;21.64;67.65;99236.31;1082324;51;20485;-80
2023/08/27 10:18:29;;;;;;;;;;;;;;;21.58;66.90;99243.50;1082630;54;19947;-80
2023/08/27 10:19:32;;;;;;;;;;;;;;;21.70;66.88;99239.97;1082889;54;19946;-81
2023/08/27 10:20:33;;;;;;;;;;;;;;;21.69;65.55;99244.56;1085917;54;19989;-83
2023/08/27 10:21:38;;;;;;;;;;;;;;;21.79;65.70;99249.41;1085730;47;19945;-82
2023/08/27 10:22:39;;;;;;;;;;;;;;;21.89;65.87;99248.78;1083994;47;19954;-79
2023/08/27 10:23:44;;;;;;;;;;;;;;;22.00;66.20;99244.41;1083478;54;19988;-81
2023/08/27 10:24:46;;;;;;;;;;;;;;;22.06;65.74;99243.44;1084355;54;19954;-80
2023/08/27 10:25:50;;;;;;;;;;;;;;;22.13;65.69;99242.25;1083147;54;19950;-81
2023/08/27 10:26:51;;;;;;;;;;;;;;;22.19;65.83;99243.19;1083332;54;19953;-80
2023/08/27 10:27:54;;;;;;;;;;;;;;;22.17;65.51;99258.94;1083181;54;19953;-81
2023/08/27 10:28:55;;;;;;;;;;;;;;;22.11;64.94;99249.00;1082799;54;19954;-81
2023/08/27 10:30:01;;;;;;;;;;;;;;;21.99;63.98;99249.03;1083241;54;19951;-80
2023/08/27 10:31:03;;;;;;;;;;;;;;;21.76;65.08;99249.88;1084350;31;20472;-81
2023/08/27 10:32:09;;;;;;;;;;;;;;;21.69;64.78;99243.75;1083312;54;19958;-80
2023/08/27 10:33:10;;;;;;;;;;;;;;;21.65;64.38;99246.94;1082914;51;19950;-80
2023/08/27 10:34:13;;;;;;;;;;;;;;;21.89;64.47;99243.34;1083307;50;20450;-81
2023/08/27 10:35:15;;;;;;;;;;;;;;;22.07;63.60;99239.66;1083230;46;19951;-81
2023/08/27 10:36:19;;;;;;;;;;;;;;;22.20;63.37;99225.78;1083786;54;19953;-80
2023/08/27 10:37:21;;;;;;;;;;;;;;;22.16;62.79;99227.34;1083642;47;19946;-80
2023/08/27 10:38:26;;;;;;;;;;;;;;;22.18;63.00;99222.50;1083806;54;20545;-81
2023/08/27 10:39:29;;;;;;;;;;;;;;;22.26;62.93;99229.41;1084091;54;20011;-82
2023/08/27 10:40:34;;;;;;;;;;;;;;;22.23;62.58;99228.03;1084243;47;19947;-81
2023/08/27 10:41:35;;;;;;;;;;;;;;;22.36;62.68;99223.38;1084752;39;20180;-81
2023/08/27 10:42:36;;;;;;;;;;;;;;;22.43;63.17;99232.25;1083872;39;20661;-82
2023/08/27 10:43:40;;;;;;;;;;;;;;;22.54;62.66;99230.53;1086244;54;19969;-83
2023/08/27 10:45:00;;;;;;;;;;;;;;;22.54;62.44;99223.22;1086817;54;20722;-85
2023/08/27 10:46:14;;;;;;;;;;;;;;;22.56;62.11;99228.41;1087017;47;19958;-81
2023/08/27 10:47:17;;;;;;;;;;;;;;;22.57;61.92;99225.44;1087240;54;19962;-83
2023/08/27 10:48:25;;;;;;;;;;;;;;;22.83;61.21;99223.19;1087815;39;20463;-84
2023/08/27 10:49:34;;;;;;;;;;;;;;;23.04;60.83;99212.63;1087169;47;19946;-83
2023/08/27 10:50:45;;;;;;;;;;;;;;;23.07;60.57;99228.47;1087250;54;19966;-82
2023/08/27 10:51:46;;;;;;;;;;;;;;;22.74;60.48;99219.19;1086778;47;19943;-84
2023/08/27 10:52:50;;;;;;;;;;;;;;;22.61;60.95;99223.06;1086873;54;19966;-82
2023/08/27 10:53:55;;;;;;;;;;;;;;;22.73;60.92;99228.44;1087202;54;20551;-83
2023/08/27 10:55:01;;;;;;;;;;;;;;;22.65;60.67;99231.56;1087236;54;19951;-84
2023/08/27 10:56:01;;;;;;;;;;;;;;;22.51;60.98;99220.97;1087197;54;19958;-83
2023/08/27 10:57:17;;;;;;;;;;;;;;;22.54;60.61;99219.63;1086825;47;19977;-84
2023/08/27 10:58:20;;;;;;;;;;;;;;;22.61;60.87;99227.66;1087048;54;19949;-83
2023/08/27 10:59:30;;;;;;;;;;;;;;;22.49;59.99;99220.38;1087001;39;20335;-81
2023/08/27 11:00:51;;;;;;;;;;;;;;;22.41;61.51;99213.44;1086993;54;19973;-82
2023/08/27 11:02:07;;;;;;;;;;;;;;;22.49;61.62;99219.56;1087206;54;19942;-82
2023/08/27 11:03:15;;;;;;;;;;;;;;;22.50;61.67;99213.84;1087286;54;19942;-83
2023/08/27 11:04:19;;;;;;;;;;;;;;;22.62;61.12;99208.38;1087319;54;19942;-82
2023/08/27 11:05:25;;;;;;;;;;;;;;;22.64;61.79;99216.28;1086806;47;19966;-83
2023/08/27 11:06:44;;;;;;;;;;;;;;;22.78;60.99;99212.19;1086900;54;19943;-82
2023/08/27 11:07:45;;;;;;;;;;;;;;;22.82;60.68;99213.34;1087303;54;19950;-83
2023/08/27 11:08:49;;;;;;;;;;;;;;;22.82;59.75;99209.78;1086893;47;20566;-84
2023/08/27 11:09:56;;;;;;;;;;;;;;;22.86;59.54;99208.22;1087014;47;20028;-83
2023/08/27 11:10:57;;;;;;;;;;;;;;;22.84;58.39;99205.75;1087111;54;20674;-82
2023/08/27 11:11:59;;;;;;;;;;;;;;;22.75;58.06;99207.25;1087048;54;19943;-83
2023/08/27 11:13:03;;;;;;;;;;;;;;;22.87;57.99;99213.44;1087002;47;19943;-83
2023/08/27 11:14:08;;;;;;;;;;;;;;;22.70;57.62;99216.16;1086987;54;19949;-84
2023/08/27 11:15:12;;;;;;;;;;;;;;;22.63;57.20;99214.63;1088177;39;20628;-83
2023/08/27 11:16:15;;;;;;;;;;;;;;;22.82;57.35;99228.84;1087039;54;19949;-82
2023/08/27 11:17:24;;;;;;;;;;;;;;;22.88;57.54;99215.06;1087140;54;20006;-83
2023/08/27 11:18:30;;;;;;;;;;;;;;;22.93;58.04;99219.78;1086884;47;19955;-84
2023/08/27 11:19:34;;;;;;;;;;;;;;;22.99;57.37;99217.97;1087015;54;19942;-83
2023/08/27 11:20:36;;;;;;;;;;;;;;;23.05;57.75;99217.81;1086952;47;19950;-84
2023/08/27 11:21:48;;;;;;;;;;;;;;;23.00;57.53;99219.63;1086899;54;19954;-82
2023/08/27 11:22:56;;;;;;;;;;;;;;;22.89;57.66;99211.28;1087270;54;19951;-85
2023/08/27 11:24:11;;;;;;;;;;;;;;;22.91;57.77;99213.75;1087154;54;19949;-83
2023/08/27 11:25:16;;;;;;;;;;;;;;;22.65;57.29;99217.94;1087162;54;20539;-83
2023/08/27 11:26:17;;;;;;;;;;;;;;;22.67;57.69;99210.38;1087164;54;19954;-83
2023/08/27 11:27:21;;;;;;;;;;;;;;;22.71;57.74;99214.22;1087050;54;19950;-82
2023/08/27 11:28:22;;;;;;;;;;;;;;;22.79;58.00;99202.94;1087048;47;20034;-82
2023/08/27 11:29:26;;;;;;;;;;;;;;;22.81;57.97;99208.97;1086841;47;19939;-83
2023/08/27 11:30:28;;;;;;;;;;;;;;;22.94;57.70;99215.19;1087054;54;19949;-83
2023/08/27 11:31:32;;;;;;;;;;;;;;;22.61;58.35;99214.06;1086574;54;19962;-83
2023/08/27 11:32:35;;;;;;;;;;;;;;;22.66;58.73;99217.69;1086762;54;19942;-84
2023/08/27 11:33:39;;;;;;;;;;;;;;;22.61;58.62;99219.50;1086876;47;19957;-82
2023/08/27 11:34:43;;;;;;;;;;;;;;;22.57;58.60;99222.72;1086675;54;19942;-83
2023/08/27 11:35:44;;;;;;;;;;;;;;;22.52;58.41;99227.25;1086815;47;19942;-81
2023/08/27 11:36:49;;;;;;;;;;;;;;;22.69;58.15;99224.53;1086899;54;19966;-83
2023/08/27 11:37:49;;;;;;;;;;;;;;;22.67;57.74;99221.25;1087051;54;19949;-84
2023/08/27 11:38:53;;;;;;;;;;;;;;;22.75;57.90;99223.59;1086930;47;19942;-83
2023/08/27 11:39:53;;;;;;;;;;;;;;;22.82;57.85;99232.41;1086912;54;19950;-84
2023/08/27 11:41:00;;;;;;;;;;;;;;;22.90;56.99;99229.28;1087248;54;19965;-85
2023/08/27 11:42:01;;;;;;;;;;;;;;;22.81;57.47;99228.03;1087183;54;19942;-82
2023/08/27 11:43:04;;;;;;;;;;;;;;;22.82;57.30;99229.69;1087119;54;19974;-82
2023/08/27 11:44:06;;;;;;;;;;;;;;;22.87;56.65;99210.69;1087173;54;19954;-85
2023/08/27 11:45:10;;;;;;;;;;;;;;;22.94;56.47;99220.63;1087040;47;19966;-81
2023/08/27 11:46:19;;;;;;;;;;;;;;;23.08;56.63;99221.94;1087031;47;19942;-81
2023/08/27 11:47:24;;;;;;;;;;;;;;;23.21;56.35;99209.91;1086893;54;19990;-83
2023/08/27 11:48:25;;;;;;;;;;;;;;;23.26;56.61;99203.72;1087607;39;20643;-82
2023/08/27 11:49:32;;;;;;;;;;;;;;;23.24;55.84;99198.53;1087200;54;19943;-81
2023/08/27 11:50:35;;;;;;;;;;;;;;;23.16;56.09;99201.63;1087286;54;19966;-82
2023/08/27 11:51:36;;;;;;;;;;;;;;;22.87;57.16;99210.69;1087017;54;19942;-83
2023/08/27 11:52:40;;;;;;;;;;;;;;;22.84;57.34;99215.81;1087093;54;19942;-83
2023/08/27 11:53:41;;;;;;;;;;;;;;;22.92;57.08;99212.69;1086584;47;19954;-85
2023/08/27 11:54:43;;;;;;;;;;;;;;;22.91;56.88;99213.75;1086871;47;19943;-84
2023/08/27 11:55:46;;;;;;;;;;;;;;;22.85;57.20;99218.31;1086866;54;19954;-83
2023/08/27 11:56:49;;;;;;;;;;;;;;;22.95;57.36;99223.09;1087221;39;20772;-84
2023/08/27 11:57:54;;;;;;;;;;;;;;;23.08;56.77;99230.13;1086967;54;19951;-83
2023/08/27 11:58:55;;;;;;;;;;;;;;;23.18;57.20;99227.59;1086783;47;19943;-82
2023/08/27 11:59:56;;;;;;;;;;;;;;;23.10;56.81;99224.41;1088960;39;20704;-82
2023/08/27 12:00:59;;;;;;;;;;;;;;;23.12;56.80;99228.56;1086656;47;19939;-82
2023/08/27 12:02:02;;;;;;;;;;;;;;;23.27;56.84;99224.44;1086817;54;19942;-83
2023/08/27 12:03:06;;;;;;;;;;;;;;;23.33;56.75;99228.94;1087530;39;20456;-81
2023/08/27 12:04:11;;;;;;;;;;;;;;;23.37;55.99;99219.16;1086885;47;20571;-83
2023/08/27 12:05:17;;;;;;;;;;;;;;;23.32;56.47;99219.09;1086629;47;19939;-83
2023/08/27 12:06:20;;;;;;;;;;;;;;;23.30;55.95;99218.50;1086913;54;19942;-82
2023/08/27 12:07:30;;;;;;;;;;;;;;;23.40;55.78;99210.50;1086082;47;20002;-83
2023/08/27 12:08:33;;;;;;;;;;;;;;;23.23;55.39;99206.97;1085996;47;19939;-81
2023/08/27 12:09:37;;;;;;;;;;;;;;;23.31;55.26;99214.72;1086876;39;20402;-84
2023/08/27 12:10:42;;;;;;;;;;;;;;;23.41;54.92;99209.41;1087244;39;20902;-83
2023/08/27 12:11:45;;;;;;;;;;;;;;;23.32;55.20;99219.09;1086302;47;19943;-83
2023/08/27 12:12:46;;;;;;;;;;;;;;;23.40;55.09;99224.13;1086709;47;19975;-81
2023/08/27 12:13:53;;;;;;;;;;;;;;;23.45;55.00;99223.38;1086821;47;20645;-83
2023/08/27 12:14:56;;;;;;;;;;;;;;;23.51;54.59;99220.47;1086837;54;19957;-82
2023/08/27 12:16:04;;;;;;;;;;;;;;;23.44;54.11;99219.81;1086903;39;20423;-82
2023/08/27 12:17:07;;;;;;;;;;;;;;;23.47;54.92;99213.84;1086759;47;20521;-83
2023/08/27 12:18:10;;;;;;;;;;;;;;;23.37;54.87;99224.63;1086430;47;19938;-81
2023/08/27 12:19:11;;;;;;;;;;;;;;;23.22;54.75;99222.47;1086610;54;19975;-81
2023/08/27 12:20:17;;;;;;;;;;;;;;;23.28;54.67;99215.19;1086776;47;19943;-82
2023/08/27 12:21:20;;;;;;;;;;;;;;;23.35;54.70;99211.25;1086905;54;19942;-82
2023/08/27 12:22:24;;;;;;;;;;;;;;;23.21;54.72;99210.75;1086551;46;19951;-82
2023/08/27 12:23:25;;;;;;;;;;;;;;;23.33;54.74;99201.66;1086522;47;19939;-82
2023/08/27 12:24:29;;;;;;;;;;;;;;;23.36;54.75;99202.00;1086693;54;19946;-83
2023/08/27 12:25:43;;;;;;;;;;;;;;;23.42;54.88;99196.59;1086858;47;19999;-81
2023/08/27 12:26:46;;;;;;;;;;;;;;;23.52;55.00;99196.75;1086423;47;19982;-81
2023/08/27 12:27:47;;;;;;;;;;;;;;;23.51;54.83;99187.75;1086855;54;19950;-82
2023/08/27 12:28:55;;;;;;;;;;;;;;;23.34;54.78;99182.31;1086811;47;19943;-82
2023/08/27 12:29:55;;;;;;;;;;;;;;;23.31;54.65;99182.81;1086626;54;19943;-82
2023/08/27 12:31:00;;;;;;;;;;;;;;;23.46;54.09;99184.94;1087021;54;21007;-80
2023/08/27 12:32:08;;;;;;;;;;;;;;;23.51;53.96;99174.13;1086778;54;19946;-80
2023/08/27 12:33:11;;;;;;;;;;;;;;;23.60;53.95;99182.66;1086264;46;20022;-81
2023/08/27 12:34:12;;;;;;;;;;;;;;;23.48;53.55;99180.06;1086690;54;19969;-84
2023/08/27 12:35:18;;;;;;;;;;;;;;;23.43;53.21;99173.72;1086548;47;19966;-83
2023/08/27 12:36:19;;;;;;;;;;;;;;;23.41;52.88;99176.69;1086548;47;19949;-84
2023/08/27 12:37:23;;;;;;;;;;;;;;;23.41;52.89;99181.31;1086382;54;20857;-83
2023/08/27 12:38:23;;;;;;;;;;;;;;;23.42;53.21;99175.63;1086664;54;19950;-84
2023/08/27 12:39:27;;;;;;;;;;;;;;;23.41;53.18;99170.41;1086253;47;19946;-83
2023/08/27 12:40:27;;;;;;;;;;;;;;;23.55;52.94;99176.31;1086445;54;19949;-82
2023/08/27 12:41:31;;;;;;;;;;;;;;;23.60;53.08;99166.31;1086817;54;20885;-83
2023/08/27 12:42:32;;;;;;;;;;;;;;;23.44;53.61;99178.91;1086860;54;20785;-83
2023/08/27 12:43:35;;;;;;;;;;;;;;;23.53;53.77;99177.41;1086554;47;19970;-83
2023/08/27 12:44:36;;;;;;;;;;;;;;;23.48;53.55;99185.53;1085938;47;20855;-82
2023/08/27 12:45:39;;;;;;;;;;;;;;;23.40;53.42;99185.94;1086322;47;19946;-83
2023/08/27 12:46:41;;;;;;;;;;;;;;;23.55;53.38;99184.50;1085963;47;19961;-83
2023/08/27 12:47:44;;;;;;;;;;;;;;;23.45;52.67;99188.72;1086348;54;19995;-83
2023/08/27 12:48:46;;;;;;;;;;;;;;;23.47;53.39;99192.03;1086166;54;19943;-83
2023/08/27 12:49:50;;;;;;;;;;;;;;;23.58;53.49;99193.00;1085845;54;19943;-84
2023/08/27 12:50:54;;;;;;;;;;;;;;;23.65;53.15;99188.22;1086100;47;19963;-82
2023/08/27 12:51:55;;;;;;;;;;;;;;;23.73;52.75;99186.94;1085972;47;19938;-83
2023/08/27 12:52:58;;;;;;;;;;;;;;;23.77;52.08;99177.19;1086230;47;19939;-83
2023/08/27 12:53:59;;;;;;;;;;;;;;;23.81;52.17;99175.56;1086165;47;20901;-84
2023/08/27 12:55:02;;;;;;;;;;;;;;;23.72;51.76;99174.38;1086088;54;19951;-84
2023/08/27 12:56:03;;;;;;;;;;;;;;;23.71;51.10;99164.53;1085940;54;19965;-83
2023/08/27 12:57:07;;;;;;;;;;;;;;;23.80;51.36;99170.38;1086271;54;19998;-83
2023/08/27 12:58:08;;;;;;;;;;;;;;;23.83;50.42;99169.88;1085661;46;19970;-84
2023/08/27 12:59:11;;;;;;;;;;;;;;;23.77;50.00;99170.88;1085871;47;20922;-84
2023/08/27 13:00:12;;;;;;;;;;;;;;;23.84;50.31;99164.16;1086537;39;20171;-83
2023/08/27 13:01:16;;;;;;;;;;;;;;;23.95;50.23;99175.25;1086151;54;19958;-84
2023/08/27 13:02:16;;;;;;;;;;;;;;;23.97;49.56;99178.53;1085778;39;20079;-83
2023/08/27 13:03:20;;;;;;;;;;;;;;;24.02;49.67;99173.13;1085583;47;20006;-84
2023/08/27 13:04:22;;;;;;;;;;;;;;;24.01;49.72;99171.47;1085149;47;19945;-83
2023/08/27 13:05:26;;;;;;;;;;;;;;;24.04;49.73;99178.34;1085549;47;20026;-83
2023/08/27 13:06:29;;;;;;;;;;;;;;;24.10;49.63;99178.13;1086347;54;19950;-85
2023/08/27 13:07:31;;;;;;;;;;;;;;;24.05;49.64;99180.81;1086176;47;19954;-81
2023/08/27 13:08:34;;;;;;;;;;;;;;;24.04;49.17;99179.16;1085611;51;19939;-80
2023/08/27 13:09:35;;;;;;;;;;;;;;;24.01;49.43;99189.78;1085294;46;19982;-81
2023/08/27 13:10:35;;;;;;;;;;;;;;;24.07;49.61;99186.00;1086060;39;20578;-80
2023/08/27 13:11:39;;;;;;;;;;;;;;;24.06;49.25;99182.47;1086188;47;19946;-80
2023/08/27 13:12:40;;;;;;;;;;;;;;;23.86;49.71;99188.47;1085973;54;20557;-83
2023/08/27 13:13:43;;;;;;;;;;;;;;;23.90;50.33;99186.06;1085922;54;19951;-83
2023/08/27 13:14:44;;;;;;;;;;;;;;;23.87;50.31;99181.13;1085771;54;19942;-83
2023/08/27 13:15:47;;;;;;;;;;;;;;;23.89;50.87;99178.97;1086163;47;19969;-82
2023/08/27 13:16:48;;;;;;;;;;;;;;;23.83;50.34;99189.78;1085965;47;19953;-83
2023/08/27 13:17:51;;;;;;;;;;;;;;;23.82;49.78;99185.41;1086622;47;19965;-84
2023/08/27 13:18:52;;;;;;;;;;;;;;;23.81;50.03;99183.75;1086332;47;19946;-84
2023/08/27 13:19:56;;;;;;;;;;;;;;;23.64;50.06;99186.56;1085893;39;20405;-82
2023/08/27 13:20:56;;;;;;;;;;;;;;;23.56;50.14;99188.88;1085914;54;19957;-85
2023/08/27 13:22:00;;;;;;;;;;;;;;;23.60;49.93;99188.13;1086243;47;19961;-83
2023/08/27 13:23:03;;;;;;;;;;;;;;;23.61;49.81;99188.97;1086049;47;19947;-84
2023/08/27 13:24:05;;;;;;;;;;;;;;;23.56;49.74;99195.19;1087654;39;20460;-83
2023/08/27 13:25:07;;;;;;;;;;;;;;;23.56;49.25;99199.78;1085716;39;20507;-83
2023/08/27 13:26:10;;;;;;;;;;;;;;;23.54;49.38;99202.78;1085536;54;19972;-83
2023/08/27 13:27:12;;;;;;;;;;;;;;;23.47;49.68;99194.78;1085703;47;19972;-83
2023/08/27 13:28:16;;;;;;;;;;;;;;;23.36;48.94;99195.69;1086731;39;20543;-85
2023/08/27 13:29:17;;;;;;;;;;;;;;;23.28;48.54;99188.78;1085819;54;20922;-83
2023/08/27 13:30:22;;;;;;;;;;;;;;;23.42;48.70;99197.44;1085855;54;19943;-84
2023/08/27 13:31:23;;;;;;;;;;;;;;;23.52;48.92;99194.84;1085833;47;19991;-83
2023/08/27 13:32:26;;;;;;;;;;;;;;;23.32;49.04;99184.47;1085857;54;20573;-83
2023/08/27 13:33:27;;;;;;;;;;;;;;;23.47;49.21;99177.59;1085512;54;19950;-85
2023/08/27 13:34:30;;;;;;;;;;;;;;;23.58;49.22;99173.09;1085920;47;19962;-83
2023/08/27 13:35:31;;;;;;;;;;;;;;;23.64;49.00;99166.63;1086352;54;19950;-81
2023/08/27 13:36:35;;;;;;;;;;;;;;;23.58;50.23;99170.38;1085554;54;20011;-83
2023/08/27 13:37:38;;;;;;;;;;;;;;;23.64;50.06;99175.66;1085998;54;19995;-83
2023/08/27 13:38:42;;;;;;;;;;;;;;;23.62;49.94;99166.03;1085261;54;19943;-83
2023/08/27 13:39:42;;;;;;;;;;;;;;;23.62;49.62;99177.78;1085658;47;19947;-82
2023/08/27 13:40:46;;;;;;;;;;;;;;;23.66;49.75;99175.38;1086199;54;19954;-81
2023/08/27 13:41:46;;;;;;;;;;;;;;;23.68;50.08;99176.78;1085558;54;19971;-83
2023/08/27 13:42:50;;;;;;;;;;;;;;;23.71;49.96;99166.44;1086180;54;19943;-84
2023/08/27 13:43:51;;;;;;;;;;;;;;;23.68;49.70;99170.50;1086492;54;19943;-87
2023/08/27 13:44:54;;;;;;;;;;;;;;;23.70;49.71;99172.97;1086245;54;20018;-83
2023/08/27 13:45:55;;;;;;;;;;;;;;;23.68;50.11;99175.97;1085676;54;19977;-83
2023/08/27 13:46:59;;;;;;;;;;;;;;;23.63;49.88;99178.59;1085777;47;19939;-84
2023/08/27 13:47:59;;;;;;;;;;;;;;;23.55;49.07;99177.16;1085442;54;19946;-83
2023/08/27 13:49:00;;;;;;;;;;;;;;;23.61;49.65;99186.25;1086235;47;19987;-84
2023/08/27 13:50:03;;;;;;;;;;;;;;;23.61;49.59;99188.97;1085743;47;19994;-84
2023/08/27 13:51:05;;;;;;;;;;;;;;;23.51;49.28;99190.47;1085908;54;19972;-82
2023/08/27 13:52:09;;;;;;;;;;;;;;;23.47;49.66;99192.03;1085218;47;20607;-82
2023/08/27 13:53:14;;;;;;;;;;;;;;;23.46;49.52;99184.94;1085501;54;19953;-83
2023/08/27 13:54:17;;;;;;;;;;;;;;;23.50;49.19;99190.72;1085726;47;19955;-83
2023/08/27 13:55:18;;;;;;;;;;;;;;;23.46;49.20;99184.94;1086187;47;19965;-84
2023/08/27 13:56:21;;;;;;;;;;;;;;;23.30;49.20;99183.88;1085877;54;19947;-84
2023/08/27 13:57:23;;;;;;;;;;;;;;;23.26;49.36;99177.28;1085545;47;19958;-83
2023/08/27 13:58:27;;;;;;;;;;;;;;;23.16;49.39;99186.09;1085950;54;19942;-84
2023/08/27 13:59:28;;;;;;;;;;;;;;;23.18;49.59;99186.72;1085393;47;20927;-82
2023/08/27 14:00:33;;;;;;;;;;;;;;;22.99;50.04;99185.28;1085517;47;19951;-83
2023/08/27 14:01:34;;;;;;;;;;;;;;;22.84;50.54;99178.53;1085681;54;19954;-83
2023/08/27 14:02:37;;;;;;;;;;;;;;;22.87;50.28;99188.91;1085975;54;19947;-83
2023/08/27 14:03:38;;;;;;;;;;;;;;;22.74;50.27;99179.16;1085800;46;19938;-82
2023/08/27 14:04:41;;;;;;;;;;;;;;;22.72;50.66;99175.84;1085688;54;20576;-83
2023/08/27 14:05:42;;;;;;;;;;;;;;;22.71;50.36;99178.81;1086030;54;19973;-83
2023/08/27 14:06:46;;;;;;;;;;;;;;;22.74;50.60;99189.25;1085817;47;19946;-83
2023/08/27 14:07:47;;;;;;;;;;;;;;;22.76;50.89;99187.09;1086381;47;19969;-83
2023/08/27 14:08:53;;;;;;;;;;;;;;;22.82;50.85;99183.38;1085979;54;19942;-82
2023/08/27 14:09:54;;;;;;;;;;;;;;;22.68;51.38;99184.75;1085414;54;19946;-80
2023/08/27 14:10:57;;;;;;;;;;;;;;;22.65;51.37;99193.44;1085415;47;20596;-83
2023/08/27 14:11:58;;;;;;;;;;;;;;;22.57;50.85;99190.06;1086232;54;20620;-83
2023/08/27 14:13:01;;;;;;;;;;;;;;;22.48;50.51;99188.78;1086415;54;19943;-83
2023/08/27 14:14:03;;;;;;;;;;;;;;;22.50;50.37;99186.63;1086540;46;20034;-84
2023/08/27 14:15:06;;;;;;;;;;;;;;;22.61;49.94;99178.66;1085989;54;19958;-83
2023/08/27 14:16:07;;;;;;;;;;;;;;;22.68;50.08;99184.75;1085803;54;20608;-83
2023/08/27 14:17:12;;;;;;;;;;;;;;;22.62;49.78;99181.16;1085636;54;19947;-85
2023/08/27 14:18:13;;;;;;;;;;;;;;;22.58;49.91;99183.50;1085563;46;19997;-82
2023/08/27 14:19:16;;;;;;;;;;;;;;;22.67;49.56;99189.38;1085659;47;19946;-84
2023/08/27 14:20:17;;;;;;;;;;;;;;;22.61;49.88;99184.09;1085108;47;20556;-82
2023/08/27 14:21:20;;;;;;;;;;;;;;;22.57;50.00;99181.88;1085206;47;19958;-83
2023/08/27 14:22:25;;;;;;;;;;;;;;;22.71;49.56;99182.41;1085389;47;19947;-82
2023/08/27 14:23:28;;;;;;;;;;;;;;;22.66;49.94;99181.47;1085559;39;20496;-82
2023/08/27 14:24:32;;;;;;;;;;;;;;;22.63;50.13;99188.22;1085521;54;19954;-83
2023/08/27 14:25:33;;;;;;;;;;;;;;;22.80;50.18;99182.78;1086143;54;19971;-83
2023/08/27 14:26:37;;;;;;;;;;;;;;;22.80;49.99;99187.44;1085689;54;19950;-82
2023/08/27 14:27:38;;;;;;;;;;;;;;;22.67;50.62;99194.03;1085468;54;20025;-83
2023/08/27 14:28:43;;;;;;;;;;;;;;;22.69;50.31;99191.84;1085292;47;21658;-84
2023/08/27 14:29:44;;;;;;;;;;;;;;;22.73;50.60;99193.84;1086220;47;19950;-80
2023/08/27 14:30:47;;;;;;;;;;;;;;;22.84;50.41;99194.88;1086679;54;19976;-82
2023/08/27 14:31:48;;;;;;;;;;;;;;;22.78;50.43;99192.28;1086769;54;19986;-81
2023/08/27 14:32:51;;;;;;;;;;;;;;;22.82;50.17;99196.16;1086070;47;19939;-81
2023/08/27 14:33:52;;;;;;;;;;;;;;;22.79;50.90;99200.22;1086577;47;20033;-81
2023/08/27 14:34:55;;;;;;;;;;;;;;;22.90;51.18;99204.75;1086060;54;19943;-80
2023/08/27 14:35:56;;;;;;;;;;;;;;;22.71;53.45;99196.00;1085568;47;19938;-80
2023/08/27 14:37:00;;;;;;;;;;;;;;;22.42;55.44;99203.38;1086478;47;19998;-83
2023/08/27 14:38:00;;;;;;;;;;;;;;;22.30;56.51;99206.09;1086483;47;19950;-81
2023/08/27 14:39:04;;;;;;;;;;;;;;;22.28;57.09;99200.06;1086151;47;19951;-81
2023/08/27 14:40:08;;;;;;;;;;;;;;;22.09;58.32;99202.16;1086367;47;19954;-81
2023/08/27 14:41:12;;;;;;;;;;;;;;;22.03;59.13;99200.38;1086529;47;19976;-80
2023/08/27 14:42:12;;;;;;;;;;;;;;;21.91;59.52;99204.00;1086422;54;19950;-80
2023/08/27 14:43:16;;;;;;;;;;;;;;;21.88;60.33;99206.34;1086682;47;19950;-80
2023/08/27 14:44:16;;;;;;;;;;;;;;;21.69;60.25;99211.09;1087549;39;20926;-81
2023/08/27 14:45:20;;;;;;;;;;;;;;;21.60;59.77;99206.03;1086528;54;19951;-82
2023/08/27 14:46:21;;;;;;;;;;;;;;;21.59;59.68;99220.69;1086609;54;19950;-80